sensor_id;sensor_type;location;lat;lon;timestamp;temperature;humidity
11536;DHT22;5824;49.336;8.652;2024-02-21T00:01:35;9.10;1.00
11536;DHT22;5824;49.336;8.652;2024-02-21T00:04:00;8.80;1.00
11536;DHT22;5824;49.336;8.652;2024-02-21T00:06:26;8.80;1.00
11536;DHT22;5824;49.336;8.652;2024-02-21T00:08:52;8.80;1.00
11536;DHT22;5824;49.336;8.652;2024-02-21T00:11:17;8.80;1.00
11536;DHT22;5824;49.336;8.652;2024-02-21T00:13:42;8.80;1.00
11536;DHT22;5824;49.336;8.652;2024-02-21T00:16:08;8.80;1.00
11536;DHT22;5824;49.336;8.652;2024-02-21T00:18:33;8.80;1.00
11536;DHT22;5824;49.336;8.652;2024-02-21T00:20:59;8.70;1.00
11536;DHT22;5824;49.336;8.652;2024-02-21T00:23:27;8.80;1.00
11536;DHT22;5824;49.336;8.652;2024-02-21T00:25:52;8.80;1.00
11536;DHT22;5824;49.336;8.652;2024-02-21T00:28:18;8.90;1.00
11536;DHT22;5824;49.336;8.652;2024-02-21T00:30:43;8.90;1.00
11536;DHT22;5824;49.336;8.652;2024-02-21T00:33:09;9.00;1.00
11536;DHT22;5824;49.336;8.652;2024-02-21T00:35:35;9.20;1.00
11536;DHT22;5824;49.336;8.652;2024-02-21T00:38:00;9.00;1.00
11536;DHT22;5824;49.336;8.652;2024-02-21T00:40:26;9.20;1.00
11536;DHT22;5824;49.336;8.652;2024-02-21T00:42:51;9.00;1.00
11536;DHT22;5824;49.336;8.652;2024-02-21T00:45:17;9.00;1.00
11536;DHT22;5824;49.336;8.652;2024-02-21T00:47:42;9.00;1.00
11536;DHT22;5824;49.336;8.652;2024-02-21T00:50:08;9.00;1.00
11536;DHT22;5824;49.336;8.652;2024-02-21T00:52:34;9.00;1.00
11536;DHT22;5824;49.336;8.652;2024-02-21T00:55:00;8.90;1.00
11536;DHT22;5824;49.336;8.652;2024-02-21T00:57:26;8.90;1.00
11536;DHT22;5824;49.336;8.652;2024-02-21T00:59:51;8.80;1.00
11536;DHT22;5824;49.336;8.652;2024-02-21T01:02:17;8.90;1.00
11536;DHT22;5824;49.336;8.652;2024-02-21T01:04:43;8.90;1.00
11536;DHT22;5824;49.336;8.652;2024-02-21T01:07:08;9.20;1.00
11536;DHT22;5824;49.336;8.652;2024-02-21T01:09:34;9.00;1.00
11536;DHT22;5824;49.336;8.652;2024-02-21T01:11:59;9.00;1.00
11536;DHT22;5824;49.336;8.652;2024-02-21T01:14:25;9.00;1.00
11536;DHT22;5824;49.336;8.652;2024-02-21T01:16:50;9.30;1.00
11536;DHT22;5824;49.336;8.652;2024-02-21T01:19:16;9.00;1.00
11536;DHT22;5824;49.336;8.652;2024-02-21T01:21:41;8.90;1.00
11536;DHT22;5824;49.336;8.652;2024-02-21T01:24:07;8.90;1.00
11536;DHT22;5824;49.336;8.652;2024-02-21T01:26:32;8.90;1.00
11536;DHT22;5824;49.336;8.652;2024-02-21T01:28:58;8.90;1.00
11536;DHT22;5824;49.336;8.652;2024-02-21T01:31:23;8.90;1.00
11536;DHT22;5824;49.336;8.652;2024-02-21T01:33:48;8.90;1.00
11536;DHT22;5824;49.336;8.652;2024-02-21T01:36:14;9.00;1.00
11536;DHT22;5824;49.336;8.652;2024-02-21T01:38:39;9.00;1.00
11536;DHT22;5824;49.336;8.652;2024-02-21T01:41:05;9.00;1.00
11536;DHT22;5824;49.336;8.652;2024-02-21T01:43:31;9.50;1.00
11536;DHT22;5824;49.336;8.652;2024-02-21T01:45:57;9.10;1.00
11536;DHT22;5824;49.336;8.652;2024-02-21T01:48:23;8.90;1.00
11536;DHT22;5824;49.336;8.652;2024-02-21T01:50:50;9.10;1.00
11536;DHT22;5824;49.336;8.652;2024-02-21T01:53:21;8.80;1.00
11536;DHT22;5824;49.336;8.652;2024-02-21T01:55:48;8.90;1.00
11536;DHT22;5824;49.336;8.652;2024-02-21T01:58:14;8.70;1.00
11536;DHT22;5824;49.336;8.652;2024-02-21T02:00:42;8.60;1.00
11536;DHT22;5824;49.336;8.652;2024-02-21T02:03:10;8.60;1.00
11536;DHT22;5824;49.336;8.652;2024-02-21T02:05:35;8.60;1.00
11536;DHT22;5824;49.336;8.652;2024-02-21T02:08:01;8.80;1.00
11536;DHT22;5824;49.336;8.652;2024-02-21T02:10:26;8.60;1.00
11536;DHT22;5824;49.336;8.652;2024-02-21T02:12:52;8.60;1.00
11536;DHT22;5824;49.336;8.652;2024-02-21T02:15:18;8.90;1.00
11536;DHT22;5824;49.336;8.652;2024-02-21T02:17:43;8.60;1.00
11536;DHT22;5824;49.336;8.652;2024-02-21T02:20:09;8.60;1.00
11536;DHT22;5824;49.336;8.652;2024-02-21T02:22:37;8.60;1.00
11536;DHT22;5824;49.336;8.652;2024-02-21T02:25:04;8.60;1.00
11536;DHT22;5824;49.336;8.652;2024-02-21T02:27:29;8.50;1.00
11536;DHT22;5824;49.336;8.652;2024-02-21T02:29:55;8.50;1.00
11536;DHT22;5824;49.336;8.652;2024-02-21T02:32:20;8.50;1.00
11536;DHT22;5824;49.336;8.652;2024-02-21T02:34:46;8.50;1.00
11536;DHT22;5824;49.336;8.652;2024-02-21T02:37:11;9.00;1.00
11536;DHT22;5824;49.336;8.652;2024-02-21T02:39:37;8.80;1.00
11536;DHT22;5824;49.336;8.652;2024-02-21T02:42:02;8.60;1.00
11536;DHT22;5824;49.336;8.652;2024-02-21T02:44:28;8.40;1.00
11536;DHT22;5824;49.336;8.652;2024-02-21T02:46:53;8.60;1.00
11536;DHT22;5824;49.336;8.652;2024-02-21T02:49:19;8.40;1.00
11536;DHT22;5824;49.336;8.652;2024-02-21T02:51:44;8.40;1.00
11536;DHT22;5824;49.336;8.652;2024-02-21T02:54:11;8.60;1.00
11536;DHT22;5824;49.336;8.652;2024-02-21T02:56:36;8.40;1.00
11536;DHT22;5824;49.336;8.652;2024-02-21T02:59:02;8.40;1.00
11536;DHT22;5824;49.336;8.652;2024-02-21T03:01:28;8.40;1.00
11536;DHT22;5824;49.336;8.652;2024-02-21T03:03:54;8.40;1.00
11536;DHT22;5824;49.336;8.652;2024-02-21T03:06:19;8.50;1.00
11536;DHT22;5824;49.336;8.652;2024-02-21T03:08:45;8.80;1.00
11536;DHT22;5824;49.336;8.652;2024-02-21T03:11:11;8.60;1.00
11536;DHT22;5824;49.336;8.652;2024-02-21T03:13:36;8.90;1.00
11536;DHT22;5824;49.336;8.652;2024-02-21T03:16:02;8.40;1.00
11536;DHT22;5824;49.336;8.652;2024-02-21T03:18:28;8.40;1.00
11536;DHT22;5824;49.336;8.652;2024-02-21T03:20:53;8.40;1.00
11536;DHT22;5824;49.336;8.652;2024-02-21T03:23:19;8.40;1.00
11536;DHT22;5824;49.336;8.652;2024-02-21T03:25:44;8.30;1.00
11536;DHT22;5824;49.336;8.652;2024-02-21T03:28:10;8.60;1.00
11536;DHT22;5824;49.336;8.652;2024-02-21T03:30:35;8.30;1.00
11536;DHT22;5824;49.336;8.652;2024-02-21T03:33:01;8.30;1.00
11536;DHT22;5824;49.336;8.652;2024-02-21T03:35:26;8.30;1.00
11536;DHT22;5824;49.336;8.652;2024-02-21T03:37:53;8.40;1.00
11536;DHT22;5824;49.336;8.652;2024-02-21T03:40:18;8.80;1.00
11536;DHT22;5824;49.336;8.652;2024-02-21T03:42:44;8.60;1.00
11536;DHT22;5824;49.336;8.652;2024-02-21T03:45:09;8.50;1.00
11536;DHT22;5824;49.336;8.652;2024-02-21T03:47:35;8.20;1.00
11536;DHT22;5824;49.336;8.652;2024-02-21T03:50:00;8.20;1.00
11536;DHT22;5824;49.336;8.652;2024-02-21T03:52:26;8.20;1.00
11536;DHT22;5824;49.336;8.652;2024-02-21T03:54:51;8.70;1.00
11536;DHT22;5824;49.336;8.652;2024-02-21T03:57:17;8.30;1.00
11536;DHT22;5824;49.336;8.652;2024-02-21T03:59:43;8.20;1.00
11536;DHT22;5824;49.336;8.652;2024-02-21T04:02:08;8.20;1.00
11536;DHT22;5824;49.336;8.652;2024-02-21T04:04:35;8.20;1.00
11536;DHT22;5824;49.336;8.652;2024-02-21T04:07:02;8.20;1.00
11536;DHT22;5824;49.336;8.652;2024-02-21T04:09:34;8.20;1.00
11536;DHT22;5824;49.336;8.652;2024-02-21T04:12:00;8.20;1.00
11536;DHT22;5824;49.336;8.652;2024-02-21T04:14:26;8.30;1.00
11536;DHT22;5824;49.336;8.652;2024-02-21T04:16:51;8.20;1.00
11536;DHT22;5824;49.336;8.652;2024-02-21T04:19:17;8.40;1.00
11536;DHT22;5824;49.336;8.652;2024-02-21T04:21:42;8.50;1.00
11536;DHT22;5824;49.336;8.652;2024-02-21T04:24:08;8.20;1.00
11536;DHT22;5824;49.336;8.652;2024-02-21T04:26:34;8.20;1.00
11536;DHT22;5824;49.336;8.652;2024-02-21T04:28:59;8.30;1.00
11536;DHT22;5824;49.336;8.652;2024-02-21T04:31:25;8.00;1.00
11536;DHT22;5824;49.336;8.652;2024-02-21T04:33:50;7.90;1.00
11536;DHT22;5824;49.336;8.652;2024-02-21T04:36:16;8.50;1.00
11536;DHT22;5824;49.336;8.652;2024-02-21T04:38:41;8.00;1.00
11536;DHT22;5824;49.336;8.652;2024-02-21T04:41:07;7.90;1.00
11536;DHT22;5824;49.336;8.652;2024-02-21T04:43:33;7.70;1.00
11536;DHT22;5824;49.336;8.652;2024-02-21T04:45:58;7.90;1.00
11536;DHT22;5824;49.336;8.652;2024-02-21T04:48:24;7.50;1.00
11536;DHT22;5824;49.336;8.652;2024-02-21T04:50:49;7.70;1.00
11536;DHT22;5824;49.336;8.652;2024-02-21T04:53:15;7.50;1.00
11536;DHT22;5824;49.336;8.652;2024-02-21T04:55:41;7.80;1.00
11536;DHT22;5824;49.336;8.652;2024-02-21T04:58:07;7.50;1.00
11536;DHT22;5824;49.336;8.652;2024-02-21T05:00:33;7.90;1.00
11536;DHT22;5824;49.336;8.652;2024-02-21T05:02:58;7.50;1.00
11536;DHT22;5824;49.336;8.652;2024-02-21T05:05:24;7.50;1.00
11536;DHT22;5824;49.336;8.652;2024-02-21T05:07:49;7.40;1.00
11536;DHT22;5824;49.336;8.652;2024-02-21T05:10:15;7.40;1.00
11536;DHT22;5824;49.336;8.652;2024-02-21T05:12:40;7.90;1.00
11536;DHT22;5824;49.336;8.652;2024-02-21T05:15:06;7.80;1.00
11536;DHT22;5824;49.336;8.652;2024-02-21T05:17:31;7.30;1.00
11536;DHT22;5824;49.336;8.652;2024-02-21T05:19:57;7.80;1.00
11536;DHT22;5824;49.336;8.652;2024-02-21T05:22:22;7.30;1.00
11536;DHT22;5824;49.336;8.652;2024-02-21T05:24:48;7.20;1.00
11536;DHT22;5824;49.336;8.652;2024-02-21T05:27:13;7.20;1.00
11536;DHT22;5824;49.336;8.652;2024-02-21T05:29:39;7.40;1.00
11536;DHT22;5824;49.336;8.652;2024-02-21T05:32:04;7.20;1.00
11536;DHT22;5824;49.336;8.652;2024-02-21T05:34:30;7.10;1.00
11536;DHT22;5824;49.336;8.652;2024-02-21T05:36:55;7.00;1.00
11536;DHT22;5824;49.336;8.652;2024-02-21T05:39:22;7.00;1.00
11536;DHT22;5824;49.336;8.652;2024-02-21T05:41:49;7.20;1.00
11536;DHT22;5824;49.336;8.652;2024-02-21T05:44:15;6.90;1.00
11536;DHT22;5824;49.336;8.652;2024-02-21T05:46:41;6.90;1.00
11536;DHT22;5824;49.336;8.652;2024-02-21T05:49:06;7.20;1.00
11536;DHT22;5824;49.336;8.652;2024-02-21T05:51:33;7.10;1.00
11536;DHT22;5824;49.336;8.652;2024-02-21T05:53:59;6.70;1.00
11536;DHT22;5824;49.336;8.652;2024-02-21T05:56:25;6.70;1.00
11536;DHT22;5824;49.336;8.652;2024-02-21T05:58:51;6.80;1.00
11536;DHT22;5824;49.336;8.652;2024-02-21T06:01:16;7.00;1.00
11536;DHT22;5824;49.336;8.652;2024-02-21T06:03:43;6.70;1.00
11536;DHT22;5824;49.336;8.652;2024-02-21T06:06:08;7.00;1.00
11536;DHT22;5824;49.336;8.652;2024-02-21T06:08:34;6.60;1.00
11536;DHT22;5824;49.336;8.652;2024-02-21T06:10:59;6.70;1.00
11536;DHT22;5824;49.336;8.652;2024-02-21T06:13:25;7.10;1.00
11536;DHT22;5824;49.336;8.652;2024-02-21T06:15:50;7.10;1.00
11536;DHT22;5824;49.336;8.652;2024-02-21T06:18:19;7.20;1.00
11536;DHT22;5824;49.336;8.652;2024-02-21T06:20:45;7.30;1.00
11536;DHT22;5824;49.336;8.652;2024-02-21T06:23:11;7.20;1.00
11536;DHT22;5824;49.336;8.652;2024-02-21T06:25:38;6.80;1.00
11536;DHT22;5824;49.336;8.652;2024-02-21T06:28:03;7.20;1.00
11536;DHT22;5824;49.336;8.652;2024-02-21T06:30:29;6.80;1.00
11536;DHT22;5824;49.336;8.652;2024-02-21T06:32:55;6.80;1.00
11536;DHT22;5824;49.336;8.652;2024-02-21T06:35:21;7.10;1.00
11536;DHT22;5824;49.336;8.652;2024-02-21T06:37:49;7.30;1.00
11536;DHT22;5824;49.336;8.652;2024-02-21T06:40:17;7.10;1.00
11536;DHT22;5824;49.336;8.652;2024-02-21T06:42:42;6.70;1.00
11536;DHT22;5824;49.336;8.652;2024-02-21T06:45:08;6.70;1.00
11536;DHT22;5824;49.336;8.652;2024-02-21T06:47:34;6.70;1.00
11536;DHT22;5824;49.336;8.652;2024-02-21T06:49:59;6.70;1.00
11536;DHT22;5824;49.336;8.652;2024-02-21T06:52:25;7.10;1.00
11536;DHT22;5824;49.336;8.652;2024-02-21T06:54:51;6.90;1.00
11536;DHT22;5824;49.336;8.652;2024-02-21T06:57:16;7.20;1.00
11536;DHT22;5824;49.336;8.652;2024-02-21T06:59:42;7.30;1.00
11536;DHT22;5824;49.336;8.652;2024-02-21T07:02:08;6.90;1.00
11536;DHT22;5824;49.336;8.652;2024-02-21T07:04:34;7.20;1.00
11536;DHT22;5824;49.336;8.652;2024-02-21T07:07:00;7.50;1.00
11536;DHT22;5824;49.336;8.652;2024-02-21T07:09:25;7.50;1.00
11536;DHT22;5824;49.336;8.652;2024-02-21T07:11:51;7.50;1.00
11536;DHT22;5824;49.336;8.652;2024-02-21T07:14:17;8.00;1.00
11536;DHT22;5824;49.336;8.652;2024-02-21T07:16:43;8.10;1.00
11536;DHT22;5824;49.336;8.652;2024-02-21T07:19:09;7.60;1.00
11536;DHT22;5824;49.336;8.652;2024-02-21T07:21:34;8.30;1.00
11536;DHT22;5824;49.336;8.652;2024-02-21T07:24:00;7.90;1.00
11536;DHT22;5824;49.336;8.652;2024-02-21T07:26:25;8.40;1.00
11536;DHT22;5824;49.336;8.652;2024-02-21T07:28:51;8.00;1.00
11536;DHT22;5824;49.336;8.652;2024-02-21T07:31:16;8.20;1.00
11536;DHT22;5824;49.336;8.652;2024-02-21T07:33:42;8.30;1.00
11536;DHT22;5824;49.336;8.652;2024-02-21T07:36:10;8.30;1.00
11536;DHT22;5824;49.336;8.652;2024-02-21T07:38:35;8.30;1.00
11536;DHT22;5824;49.336;8.652;2024-02-21T07:41:01;8.50;1.00
11536;DHT22;5824;49.336;8.652;2024-02-21T07:43:26;8.60;1.00
11536;DHT22;5824;49.336;8.652;2024-02-21T07:45:52;8.80;1.00
11536;DHT22;5824;49.336;8.652;2024-02-21T07:48:21;8.80;1.00
11536;DHT22;5824;49.336;8.652;2024-02-21T07:50:50;8.80;1.00
11536;DHT22;5824;49.336;8.652;2024-02-21T07:53:16;8.90;1.00
11536;DHT22;5824;49.336;8.652;2024-02-21T07:55:41;9.10;1.00
11536;DHT22;5824;49.336;8.652;2024-02-21T07:58:07;9.30;1.00
11536;DHT22;5824;49.336;8.652;2024-02-21T08:00:32;9.20;1.00
11536;DHT22;5824;49.336;8.652;2024-02-21T08:02:58;9.30;1.00
11536;DHT22;5824;49.336;8.652;2024-02-21T08:05:24;9.30;1.00
11536;DHT22;5824;49.336;8.652;2024-02-21T08:07:49;9.30;1.00
11536;DHT22;5824;49.336;8.652;2024-02-21T08:10:15;9.70;1.00
11536;DHT22;5824;49.336;8.652;2024-02-21T08:12:40;9.70;1.00
11536;DHT22;5824;49.336;8.652;2024-02-21T08:15:06;10.10;1.00
11536;DHT22;5824;49.336;8.652;2024-02-21T08:17:33;10.10;1.00
11536;DHT22;5824;49.336;8.652;2024-02-21T08:19:59;10.20;1.00
11536;DHT22;5824;49.336;8.652;2024-02-21T08:22:24;10.60;1.00
11536;DHT22;5824;49.336;8.652;2024-02-21T08:24:50;10.80;1.00
11536;DHT22;5824;49.336;8.652;2024-02-21T08:27:15;10.60;1.00
11536;DHT22;5824;49.336;8.652;2024-02-21T08:29:41;10.40;1.00
11536;DHT22;5824;49.336;8.652;2024-02-21T08:32:06;10.20;1.00
11536;DHT22;5824;49.336;8.652;2024-02-21T08:34:32;10.20;1.00
11536;DHT22;5824;49.336;8.652;2024-02-21T08:36:59;10.40;1.00
11536;DHT22;5824;49.336;8.652;2024-02-21T08:39:25;10.40;1.00
11536;DHT22;5824;49.336;8.652;2024-02-21T08:41:50;10.50;1.00
11536;DHT22;5824;49.336;8.652;2024-02-21T08:44:16;10.30;1.00
11536;DHT22;5824;49.336;8.652;2024-02-21T08:46:41;10.10;1.00
11536;DHT22;5824;49.336;8.652;2024-02-21T08:49:09;10.20;1.00
11536;DHT22;5824;49.336;8.652;2024-02-21T08:51:35;10.20;1.00
11536;DHT22;5824;49.336;8.652;2024-02-21T08:54:00;10.30;1.00
11536;DHT22;5824;49.336;8.652;2024-02-21T08:56:27;10.20;1.00
11536;DHT22;5824;49.336;8.652;2024-02-21T08:58:52;10.20;1.00
11536;DHT22;5824;49.336;8.652;2024-02-21T09:01:18;10.50;1.00
11536;DHT22;5824;49.336;8.652;2024-02-21T09:03:43;11.10;1.00
11536;DHT22;5824;49.336;8.652;2024-02-21T09:06:10;10.70;1.00
11536;DHT22;5824;49.336;8.652;2024-02-21T09:08:36;10.50;1.00
11536;DHT22;5824;49.336;8.652;2024-02-21T09:11:01;10.60;1.00
11536;DHT22;5824;49.336;8.652;2024-02-21T09:13:27;10.90;1.00
11536;DHT22;5824;49.336;8.652;2024-02-21T09:15:53;11.10;1.00
11536;DHT22;5824;49.336;8.652;2024-02-21T09:18:18;11.70;1.00
11536;DHT22;5824;49.336;8.652;2024-02-21T09:20:44;12.50;1.00
11536;DHT22;5824;49.336;8.652;2024-02-21T09:23:10;13.40;1.00
11536;DHT22;5824;49.336;8.652;2024-02-21T09:25:36;14.30;1.00
11536;DHT22;5824;49.336;8.652;2024-02-21T09:28:02;15.30;1.00
11536;DHT22;5824;49.336;8.652;2024-02-21T09:30:27;16.40;1.00
11536;DHT22;5824;49.336;8.652;2024-02-21T09:32:53;16.50;1.00
11536;DHT22;5824;49.336;8.652;2024-02-21T09:35:18;16.70;1.00
11536;DHT22;5824;49.336;8.652;2024-02-21T09:37:44;16.80;1.00
11536;DHT22;5824;49.336;8.652;2024-02-21T09:40:10;16.30;1.00
11536;DHT22;5824;49.336;8.652;2024-02-21T09:42:39;16.50;1.00
11536;DHT22;5824;49.336;8.652;2024-02-21T09:45:20;16.50;1.00
11536;DHT22;5824;49.336;8.652;2024-02-21T09:47:59;16.50;1.00
11536;DHT22;5824;49.336;8.652;2024-02-21T09:50:29;16.70;1.00
11536;DHT22;5824;49.336;8.652;2024-02-21T09:52:57;16.60;1.00
11536;DHT22;5824;49.336;8.652;2024-02-21T09:55:24;16.00;1.00
11536;DHT22;5824;49.336;8.652;2024-02-21T09:57:51;16.00;1.00
11536;DHT22;5824;49.336;8.652;2024-02-21T10:00:18;16.60;1.00
11536;DHT22;5824;49.336;8.652;2024-02-21T10:02:48;17.10;1.00
11536;DHT22;5824;49.336;8.652;2024-02-21T10:05:14;16.90;1.00
11536;DHT22;5824;49.336;8.652;2024-02-21T10:07:40;16.80;1.00
11536;DHT22;5824;49.336;8.652;2024-02-21T10:10:06;16.80;1.00
11536;DHT22;5824;49.336;8.652;2024-02-21T10:12:32;16.90;1.00
11536;DHT22;5824;49.336;8.652;2024-02-21T10:15:05;16.90;1.00
11536;DHT22;5824;49.336;8.652;2024-02-21T10:17:32;16.80;1.00
11536;DHT22;5824;49.336;8.652;2024-02-21T10:20:09;16.40;1.00
11536;DHT22;5824;49.336;8.652;2024-02-21T10:22:35;16.80;1.00
11536;DHT22;5824;49.336;8.652;2024-02-21T10:25:11;16.70;1.00
11536;DHT22;5824;49.336;8.652;2024-02-21T10:27:37;16.70;1.00
11536;DHT22;5824;49.336;8.652;2024-02-21T10:30:07;16.70;1.00
11536;DHT22;5824;49.336;8.652;2024-02-21T10:32:33;15.30;1.00
11536;DHT22;5824;49.336;8.652;2024-02-21T10:35:03;15.30;1.00
11536;DHT22;5824;49.336;8.652;2024-02-21T10:37:31;15.20;1.00
11536;DHT22;5824;49.336;8.652;2024-02-21T10:39:57;15.10;1.00
11536;DHT22;5824;49.336;8.652;2024-02-21T10:42:23;15.10;1.00
11536;DHT22;5824;49.336;8.652;2024-02-21T10:44:54;15.10;1.00
11536;DHT22;5824;49.336;8.652;2024-02-21T10:47:23;15.80;1.00
11536;DHT22;5824;49.336;8.652;2024-02-21T10:49:57;16.30;1.00
11536;DHT22;5824;49.336;8.652;2024-02-21T10:52:48;16.80;1.00
11536;DHT22;5824;49.336;8.652;2024-02-21T10:55:20;17.20;1.00
11536;DHT22;5824;49.336;8.652;2024-02-21T10:57:49;16.90;1.00
11536;DHT22;5824;49.336;8.652;2024-02-21T11:00:17;16.90;1.00
11536;DHT22;5824;49.336;8.652;2024-02-21T11:02:44;16.10;1.00
11536;DHT22;5824;49.336;8.652;2024-02-21T11:05:09;15.80;1.00
11536;DHT22;5824;49.336;8.652;2024-02-21T11:07:37;15.40;1.00
11536;DHT22;5824;49.336;8.652;2024-02-21T11:10:03;15.40;1.00
11536;DHT22;5824;49.336;8.652;2024-02-21T11:12:32;15.10;1.00
11536;DHT22;5824;49.336;8.652;2024-02-21T11:15:07;15.20;1.00
11536;DHT22;5824;49.336;8.652;2024-02-21T11:17:33;15.00;1.00
11536;DHT22;5824;49.336;8.652;2024-02-21T11:19:58;15.00;1.00
11536;DHT22;5824;49.336;8.652;2024-02-21T11:22:26;14.50;1.00
11536;DHT22;5824;49.336;8.652;2024-02-21T11:25:06;14.50;1.00
11536;DHT22;5824;49.336;8.652;2024-02-21T11:27:34;14.40;1.00
11536;DHT22;5824;49.336;8.652;2024-02-21T11:29:59;14.40;1.00
11536;DHT22;5824;49.336;8.652;2024-02-21T11:32:26;14.60;1.00
11536;DHT22;5824;49.336;8.652;2024-02-21T11:35:02;14.60;1.00
11536;DHT22;5824;49.336;8.652;2024-02-21T11:37:33;14.50;1.00
11536;DHT22;5824;49.336;8.652;2024-02-21T11:39:59;14.60;1.00
11536;DHT22;5824;49.336;8.652;2024-02-21T11:42:26;15.10;1.00
11536;DHT22;5824;49.336;8.652;2024-02-21T11:44:53;15.10;1.00
11536;DHT22;5824;49.336;8.652;2024-02-21T11:47:19;15.40;1.00
11536;DHT22;5824;49.336;8.652;2024-02-21T11:49:48;15.00;1.00
11536;DHT22;5824;49.336;8.652;2024-02-21T11:52:16;14.50;1.00
11536;DHT22;5824;49.336;8.652;2024-02-21T11:54:42;14.50;1.00
11536;DHT22;5824;49.336;8.652;2024-02-21T11:57:07;14.70;1.00
11536;DHT22;5824;49.336;8.652;2024-02-21T11:59:33;14.60;1.00
11536;DHT22;5824;49.336;8.652;2024-02-21T12:02:00;14.50;1.00
11536;DHT22;5824;49.336;8.652;2024-02-21T12:04:26;14.30;1.00
11536;DHT22;5824;49.336;8.652;2024-02-21T12:06:53;14.00;1.00
11536;DHT22;5824;49.336;8.652;2024-02-21T12:09:19;14.20;1.00
11536;DHT22;5824;49.336;8.652;2024-02-21T12:11:45;14.10;1.00
11536;DHT22;5824;49.336;8.652;2024-02-21T12:14:16;13.90;1.00
11536;DHT22;5824;49.336;8.652;2024-02-21T12:16:41;14.10;1.00
11536;DHT22;5824;49.336;8.652;2024-02-21T12:19:09;14.30;1.00
11536;DHT22;5824;49.336;8.652;2024-02-21T12:21:35;14.60;1.00
11536;DHT22;5824;49.336;8.652;2024-02-21T12:24:16;14.60;1.00
11536;DHT22;5824;49.336;8.652;2024-02-21T12:26:42;14.50;1.00
11536;DHT22;5824;49.336;8.652;2024-02-21T12:29:08;14.50;1.00
11536;DHT22;5824;49.336;8.652;2024-02-21T12:31:36;14.50;1.00
11536;DHT22;5824;49.336;8.652;2024-02-21T12:34:02;14.80;1.00
11536;DHT22;5824;49.336;8.652;2024-02-21T12:36:27;14.80;1.00
11536;DHT22;5824;49.336;8.652;2024-02-21T12:38:53;15.00;1.00
11536;DHT22;5824;49.336;8.652;2024-02-21T12:41:18;15.30;1.00
11536;DHT22;5824;49.336;8.652;2024-02-21T12:43:44;15.40;1.00
11536;DHT22;5824;49.336;8.652;2024-02-21T12:46:09;15.30;1.00
11536;DHT22;5824;49.336;8.652;2024-02-21T12:48:35;15.10;1.00
11536;DHT22;5824;49.336;8.652;2024-02-21T12:51:00;15.00;1.00
11536;DHT22;5824;49.336;8.652;2024-02-21T12:53:26;14.80;1.00
11536;DHT22;5824;49.336;8.652;2024-02-21T12:55:52;14.70;1.00
11536;DHT22;5824;49.336;8.652;2024-02-21T12:58:18;14.50;1.00
11536;DHT22;5824;49.336;8.652;2024-02-21T13:00:43;14.50;1.00
11536;DHT22;5824;49.336;8.652;2024-02-21T13:03:10;14.60;1.00
11536;DHT22;5824;49.336;8.652;2024-02-21T13:05:36;14.50;1.00
11536;DHT22;5824;49.336;8.652;2024-02-21T13:08:02;14.50;1.00
11536;DHT22;5824;49.336;8.652;2024-02-21T13:10:27;14.40;1.00
11536;DHT22;5824;49.336;8.652;2024-02-21T13:12:53;13.20;1.00
11536;DHT22;5824;49.336;8.652;2024-02-21T13:15:20;14.40;1.00
11536;DHT22;5824;49.336;8.652;2024-02-21T13:17:45;14.50;1.00
11536;DHT22;5824;49.336;8.652;2024-02-21T13:20:11;14.30;1.00
11536;DHT22;5824;49.336;8.652;2024-02-21T13:22:37;14.30;1.00
11536;DHT22;5824;49.336;8.652;2024-02-21T13:25:03;14.30;1.00
11536;DHT22;5824;49.336;8.652;2024-02-21T13:27:30;14.30;1.00
11536;DHT22;5824;49.336;8.652;2024-02-21T13:29:55;14.30;1.00
11536;DHT22;5824;49.336;8.652;2024-02-21T13:32:21;13.80;1.00
11536;DHT22;5824;49.336;8.652;2024-02-21T13:34:46;13.80;1.00
11536;DHT22;5824;49.336;8.652;2024-02-21T13:37:12;13.80;1.00
11536;DHT22;5824;49.336;8.652;2024-02-21T13:39:39;13.90;1.00
11536;DHT22;5824;49.336;8.652;2024-02-21T13:42:05;13.70;1.00
11536;DHT22;5824;49.336;8.652;2024-02-21T13:44:34;13.80;1.00
11536;DHT22;5824;49.336;8.652;2024-02-21T13:47:00;13.80;1.00
11536;DHT22;5824;49.336;8.652;2024-02-21T13:49:25;13.80;1.00
11536;DHT22;5824;49.336;8.652;2024-02-21T13:51:51;13.60;1.00
11536;DHT22;5824;49.336;8.652;2024-02-21T13:54:17;13.50;1.00
11536;DHT22;5824;49.336;8.652;2024-02-21T13:56:45;13.40;1.00
11536;DHT22;5824;49.336;8.652;2024-02-21T13:59:11;13.30;1.00
11536;DHT22;5824;49.336;8.652;2024-02-21T14:01:37;13.40;1.00
11536;DHT22;5824;49.336;8.652;2024-02-21T14:04:02;13.30;1.00
11536;DHT22;5824;49.336;8.652;2024-02-21T14:06:29;13.30;1.00
11536;DHT22;5824;49.336;8.652;2024-02-21T14:08:54;13.40;1.00
11536;DHT22;5824;49.336;8.652;2024-02-21T14:11:20;13.40;1.00
11536;DHT22;5824;49.336;8.652;2024-02-21T14:13:45;13.40;1.00
11536;DHT22;5824;49.336;8.652;2024-02-21T14:16:11;13.40;1.00
11536;DHT22;5824;49.336;8.652;2024-02-21T14:18:39;13.40;1.00
11536;DHT22;5824;49.336;8.652;2024-02-21T14:21:06;13.50;1.00
11536;DHT22;5824;49.336;8.652;2024-02-21T14:23:32;13.50;1.00
11536;DHT22;5824;49.336;8.652;2024-02-21T14:25:59;13.60;1.00
11536;DHT22;5824;49.336;8.652;2024-02-21T14:28:24;13.60;1.00
11536;DHT22;5824;49.336;8.652;2024-02-21T14:30:50;13.50;1.00
11536;DHT22;5824;49.336;8.652;2024-02-21T14:33:19;13.60;1.00
11536;DHT22;5824;49.336;8.652;2024-02-21T14:35:44;13.60;1.00
11536;DHT22;5824;49.336;8.652;2024-02-21T14:38:10;13.70;1.00
11536;DHT22;5824;49.336;8.652;2024-02-21T14:40:35;13.60;1.00
11536;DHT22;5824;49.336;8.652;2024-02-21T14:43:01;13.60;1.00
11536;DHT22;5824;49.336;8.652;2024-02-21T14:45:26;13.60;1.00
11536;DHT22;5824;49.336;8.652;2024-02-21T14:47:52;13.60;1.00
11536;DHT22;5824;49.336;8.652;2024-02-21T14:50:17;13.70;1.00
11536;DHT22;5824;49.336;8.652;2024-02-21T14:52:43;13.80;1.00
11536;DHT22;5824;49.336;8.652;2024-02-21T14:55:09;13.70;1.00
11536;DHT22;5824;49.336;8.652;2024-02-21T14:57:35;13.80;1.00
11536;DHT22;5824;49.336;8.652;2024-02-21T15:00:01;13.80;1.00
11536;DHT22;5824;49.336;8.652;2024-02-21T15:02:28;13.50;1.00
11536;DHT22;5824;49.336;8.652;2024-02-21T15:04:53;13.50;1.00
11536;DHT22;5824;49.336;8.652;2024-02-21T15:07:20;13.40;1.00
11536;DHT22;5824;49.336;8.652;2024-02-21T15:09:49;11.60;1.00
11536;DHT22;5824;49.336;8.652;2024-02-21T15:12:15;13.30;1.00
11536;DHT22;5824;49.336;8.652;2024-02-21T15:14:40;13.30;1.00
11536;DHT22;5824;49.336;8.652;2024-02-21T15:17:05;13.20;1.00
11536;DHT22;5824;49.336;8.652;2024-02-21T15:19:31;13.20;1.00
11536;DHT22;5824;49.336;8.652;2024-02-21T15:21:58;13.30;1.00
11536;DHT22;5824;49.336;8.652;2024-02-21T15:24:24;13.40;1.00
11536;DHT22;5824;49.336;8.652;2024-02-21T15:26:50;13.40;1.00
11536;DHT22;5824;49.336;8.652;2024-02-21T15:29:15;13.40;1.00
11536;DHT22;5824;49.336;8.652;2024-02-21T15:31:41;13.40;1.00
11536;DHT22;5824;49.336;8.652;2024-02-21T15:34:13;13.30;1.00
11536;DHT22;5824;49.336;8.652;2024-02-21T15:36:38;13.20;1.00
11536;DHT22;5824;49.336;8.652;2024-02-21T15:39:04;13.20;1.00
11536;DHT22;5824;49.336;8.652;2024-02-21T15:41:30;13.00;1.00
11536;DHT22;5824;49.336;8.652;2024-02-21T15:43:55;13.00;1.00
11536;DHT22;5824;49.336;8.652;2024-02-21T15:46:24;12.80;1.00
11536;DHT22;5824;49.336;8.652;2024-02-21T15:48:49;12.70;1.00
11536;DHT22;5824;49.336;8.652;2024-02-21T15:51:22;12.70;1.00
11536;DHT22;5824;49.336;8.652;2024-02-21T15:53:48;12.70;1.00
11536;DHT22;5824;49.336;8.652;2024-02-21T15:56:14;12.60;1.00
11536;DHT22;5824;49.336;8.652;2024-02-21T15:58:40;12.70;1.00
11536;DHT22;5824;49.336;8.652;2024-02-21T16:01:06;12.70;1.00
11536;DHT22;5824;49.336;8.652;2024-02-21T16:03:32;12.80;1.00